Weather History for Bennettsville, SC

Change the Weather History Date:

Sunday, July 7, 2013

  Actual Average (KFLO) Record (KFLO)
Temperature  
Mean Temperature 82 °F 81 °F  
Max Temperature 91 °F 91 °F 104 °F (1954)
Min Temperature 73 °F 71 °F 57 °F (1951)
Degree Days  
Heating Degree Days 0 0  
Month to date heating degree days 0  
Since 1 June heating degree days 1  
Since 1 July heating degree days 0  
Cooling Degree Days 17 16  
Month to date cooling degree days 112  
Year to date cooling degree days 816  
Since 1 June cooling degree days 509  
Growing Degree Days 32 (Base 50)    
Moisture  
Dew Point 71 °F    
Average Humidity 74    
Maximum Humidity 100    
Minimum Humidity 41    
Precipitation  
Precipitation 0.00 in 0.15 in 1.59 in (1953)
Month to date precipitation 1.03  
Year to date precipitation 21.01  
Sea Level Pressure  
Sea Level Pressure 30.16 in    
Wind  
Wind Speed 3 mph (South)    
Max Wind Speed 10 mph    
Max Gust Speed -    
Visibility 10 miles    
Events      
T = Trace of Precipitation, MM = Missing Value Source: NWS Daily Summary

Daily Weather History Graph

Daily Weather History Graph

Search for Another Location

Airport:

Trip Planner

Search our weather history database for the weather conditions in past years. The results will help you decide how hot, cold, wet, or windy it might be!

Date:

Astronomy

Jul. 07, 2013 Rise Set
Actual Time 6:12 AM EDT 8:34 PM EDT
Civil Twilight 5:43 AM EDT 9:04 PM EDT
Nautical Twilight 5:07 AM EDT 9:39 PM EDT
Astronomical Twilight 4:28 AM EDT 10:19 PM EDT
Moon 5:44 AM EDT (7/7) 8:00 PM EDT (7/7)
Length of Visible Light 15h 20m
Length of Day
14h 22m
Waning Crescent, 0% of the Moon is Illuminated
Jul 7
Waning Crescent
Jul 8
New
Jul 15
First Quarter
Jul 22
Full
Jul 29
Last Quarter

Hourly Weather History & Observations

Time (EDT) Temp. Heat Index Dew Point Humidity Pressure Visibility Wind Dir Wind Speed Gust Speed Precip Events Conditions
12:15 AM 77.0 °F - 71.6 °F 83% 30.20 in 10.0 mi Calm Calm - N/A   Clear
12:35 AM 77.0 °F - 71.6 °F 83% 30.20 in 10.0 mi SSE 3.5 mph - N/A   Clear
12:55 AM 77.0 °F - 71.6 °F 83% 30.20 in 10.0 mi South 3.5 mph - N/A   Clear
1:15 AM 77.0 °F - 71.6 °F 83% 30.19 in 10.0 mi SSE 3.5 mph - N/A   Clear
1:35 AM 75.2 °F - 71.6 °F 89% 30.18 in 10.0 mi SE 3.5 mph - N/A   Clear
1:55 AM 75.2 °F - 71.6 °F 89% 30.18 in 10.0 mi Calm Calm - N/A   Clear
2:15 AM 75.2 °F - 71.6 °F 89% 30.17 in 10.0 mi Calm Calm - N/A   Clear
2:35 AM 73.4 °F - 71.6 °F 94% 30.16 in 10.0 mi Calm Calm - N/A   Clear
2:55 AM 73.4 °F - 73.4 °F 100% 30.16 in 10.0 mi Calm Calm - N/A   Clear
3:15 AM 73.4 °F - 73.4 °F 100% 30.16 in 10.0 mi Calm Calm - N/A   Clear
3:35 AM 73.4 °F - 71.6 °F 94% 30.16 in 10.0 mi Calm Calm - N/A   Clear
3:55 AM 73.4 °F - 73.4 °F 100% 30.17 in 10.0 mi Calm Calm - N/A   Clear
4:15 AM 73.4 °F - 73.4 °F 100% 30.17 in 10.0 mi Calm Calm - N/A   Clear
4:35 AM 73.4 °F - 73.4 °F 100% 30.17 in 10.0 mi Calm Calm - N/A   Clear
4:55 AM 73.4 °F - 73.4 °F 100% 30.16 in 10.0 mi Calm Calm - N/A   Clear
5:15 AM 73.4 °F - 73.4 °F 100% 30.17 in 10.0 mi SSE 3.5 mph - N/A   Clear
5:35 AM 73.4 °F - 73.4 °F 100% 30.17 in 10.0 mi SSE 3.5 mph - N/A   Clear
5:55 AM 73.4 °F - 73.4 °F 100% 30.17 in 10.0 mi Calm Calm - N/A   Clear
6:15 AM 73.4 °F - 73.4 °F 100% 30.18 in 10.0 mi Calm Calm - N/A   Clear
6:35 AM 73.4 °F - 73.4 °F 100% 30.18 in 10.0 mi Calm Calm - N/A   Clear
6:55 AM 73.4 °F - 73.4 °F 100% 30.18 in 7.0 mi Calm Calm - N/A   Clear
7:15 AM 73.4 °F - 73.4 °F 100% 30.18 in 10.0 mi SE 3.5 mph - N/A   Clear
7:35 AM 75.2 °F - 73.4 °F 94% 30.19 in 10.0 mi SSE 3.5 mph - N/A   Scattered Clouds
7:55 AM 77.0 °F - 73.4 °F 89% 30.19 in 10.0 mi SSE 3.5 mph - N/A   Mostly Cloudy
8:15 AM 77.0 °F - 73.4 °F 89% 30.20 in 10.0 mi SE 4.6 mph - N/A   Overcast
8:35 AM 77.0 °F - 73.4 °F 89% 30.20 in 10.0 mi Calm Calm - N/A   Overcast
8:55 AM 78.8 °F - 73.4 °F 83% 30.20 in 10.0 mi South 5.8 mph - N/A   Overcast
9:15 AM 80.6 °F 85.4 °F 73.4 °F 79% 30.20 in 10.0 mi South 4.6 mph - N/A   Overcast
9:35 AM 80.6 °F 85.4 °F 73.4 °F 79% 30.20 in 10.0 mi South 5.8 mph - N/A   Overcast
9:55 AM 80.6 °F 85.4 °F 73.4 °F 79% 30.20 in 10.0 mi SSE 5.8 mph - N/A   Overcast
10:15 AM 80.6 °F 85.4 °F 73.4 °F 79% 30.20 in 10.0 mi South 5.8 mph - N/A   Overcast
10:35 AM 82.4 °F 88.2 °F 73.4 °F 74% 30.20 in 10.0 mi SSE 4.6 mph - N/A   Overcast
10:55 AM 82.4 °F 87.2 °F 71.6 °F 70% 30.19 in 10.0 mi SSE 6.9 mph - N/A   Overcast
11:15 AM 84.2 °F 89.6 °F 71.6 °F 66% 30.19 in 10.0 mi South 5.8 mph - N/A   Overcast
11:35 AM 86.0 °F 90.4 °F 69.8 °F 58% 30.19 in 10.0 mi South 6.9 mph - N/A   Overcast
11:55 AM 86.0 °F 90.4 °F 69.8 °F 58% 30.19 in 10.0 mi South 8.1 mph - N/A   Mostly Cloudy
12:15 PM 84.2 °F 90.9 °F 73.4 °F 70% 30.19 in 10.0 mi SW 5.8 mph - N/A   Mostly Cloudy
12:35 PM 86.0 °F 91.8 °F 71.6 °F 62% 30.18 in 10.0 mi SSE 5.8 mph - N/A   Scattered Clouds
12:55 PM 87.8 °F 92.6 °F 69.8 °F 55% 30.17 in 10.0 mi SE 4.6 mph - N/A   Scattered Clouds
1:15 PM 87.8 °F 92.6 °F 69.8 °F 55% 30.17 in 10.0 mi South 5.8 mph - N/A   Scattered Clouds
1:35 PM 89.6 °F 93.4 °F 68.0 °F 49% 30.16 in 10.0 mi South 8.1 mph - N/A   Scattered Clouds
1:55 PM 89.6 °F 93.4 °F 68.0 °F 49% 30.16 in 10.0 mi South 6.9 mph - N/A   Mostly Cloudy
2:15 PM 89.6 °F 93.4 °F 68.0 °F 49% 30.15 in 10.0 mi SSE 8.1 mph - N/A   Mostly Cloudy
2:35 PM 89.6 °F 93.4 °F 68.0 °F 49% 30.15 in 10.0 mi South 10.4 mph - N/A   Scattered Clouds
2:55 PM 89.6 °F 93.4 °F 68.0 °F 49% 30.14 in 10.0 mi South 9.2 mph - N/A   Scattered Clouds
3:15 PM 89.6 °F 92.2 °F 66.2 °F 46% 30.13 in 10.0 mi SSE 5.8 mph - N/A   Clear
3:35 PM 91.4 °F 94.0 °F 66.2 °F 43% 30.13 in 10.0 mi SSE 4.6 mph - N/A   Clear
3:55 PM 91.4 °F 94.0 °F 66.2 °F 43% 30.12 in 10.0 mi South 9.2 mph - N/A   Scattered Clouds
4:15 PM 91.4 °F 94.0 °F 66.2 °F 43% 30.11 in 10.0 mi SSW 9.2 mph - N/A   Scattered Clouds
4:35 PM 91.4 °F 93.2 °F 64.4 °F 41% 30.11 in 10.0 mi South 10.4 mph - N/A   Scattered Clouds
4:55 PM 89.6 °F 92.2 °F 66.2 °F 46% 30.10 in 10.0 mi South 6.9 mph - N/A   Scattered Clouds
5:15 PM 89.6 °F 92.2 °F 66.2 °F 46% 30.10 in 10.0 mi South 6.9 mph - N/A   Scattered Clouds
5:35 PM 89.6 °F 93.4 °F 68.0 °F 49% 30.09 in 10.0 mi SSE 9.2 mph - N/A   Scattered Clouds
5:55 PM 87.8 °F 91.4 °F 68.0 °F 52% 30.09 in 10.0 mi South 6.9 mph - N/A   Clear
6:15 PM 87.8 °F 91.4 °F 68.0 °F 52% 30.08 in 10.0 mi South 5.8 mph - N/A   Clear
6:35 PM 87.8 °F 92.6 °F 69.8 °F 55% 30.08 in 10.0 mi South 5.8 mph - N/A   Scattered Clouds
6:55 PM 87.8 °F 92.6 °F 69.8 °F 55% 30.08 in 10.0 mi South 9.2 mph - N/A   Scattered Clouds
7:15 PM 86.0 °F 91.8 °F 71.6 °F 62% 30.08 in 10.0 mi South 4.6 mph - N/A   Clear
7:35 PM 86.0 °F 91.8 °F 71.6 °F 62% 30.09 in 10.0 mi SSW 4.6 mph - N/A   Clear
7:55 PM 84.2 °F 89.6 °F 71.6 °F 66% 30.09 in 10.0 mi South 4.6 mph - N/A   Clear
8:15 PM 84.2 °F 89.6 °F 71.6 °F 66% 30.09 in 10.0 mi South 3.5 mph - N/A   Clear
8:35 PM 82.4 °F 87.2 °F 71.6 °F 70% 30.10 in 10.0 mi South 3.5 mph - N/A   Clear
8:55 PM 82.4 °F 87.2 °F 71.6 °F 70% 30.11 in 10.0 mi South 3.5 mph - N/A   Clear
9:15 PM 82.4 °F 87.2 °F 71.6 °F 70% 30.12 in 10.0 mi Calm Calm - N/A   Scattered Clouds
9:35 PM 82.4 °F 87.2 °F 71.6 °F 70% 30.13 in 10.0 mi South 3.5 mph - N/A   Mostly Cloudy
9:55 PM 80.6 °F 84.6 °F 71.6 °F 74% 30.14 in 10.0 mi Calm Calm - N/A   Scattered Clouds
10:15 PM 80.6 °F 85.4 °F 73.4 °F 79% 30.15 in 10.0 mi Calm Calm - N/A   Scattered Clouds
10:35 PM 80.6 °F 85.4 °F 73.4 °F 79% 30.16 in 10.0 mi SSE 3.5 mph - N/A   Clear
10:55 PM 80.6 °F 85.4 °F 73.4 °F 79% 30.16 in 10.0 mi Calm Calm - N/A   Clear
11:15 PM 80.6 °F 85.4 °F 73.4 °F 79% 30.16 in 10.0 mi Calm Calm - N/A   Clear
11:35 PM 78.8 °F - 73.4 °F 83% 30.16 in 10.0 mi South 3.5 mph - N/A   Clear
11:55 PM 78.8 °F - 73.4 °F 83% 30.16 in 10.0 mi SSE 4.6 mph - N/A   Clear